Airfield :







YOU CAN JOIN US ON...

 
LOGIN :

Register | Disclaimer

   EN    FR    IT 

 









Legend :    VFR   Marginal VFR   IFR   Intensive IFR   Very Intensive IFR
Visi :
Ceiling :
>= 8 km
>= 3000ft
5 to 8 km
1000 to 3000 ft
1500m to 5 km
500 to 1000 ft
800 to 1500m
200 to 500 ft
< 800m
< 200 ft
Symbols :   Thunderstorms  Fog  Heavy snow  Heavy precipitations  Wind > 20 kt






- Airport Elevation : 534 ft
- IATA code : PQI


KPQI - Northern Maine Regional Arpt At Presque Isle

CURRENT METAR :
  • 021956Z AUTO 03013KT 10SM -RA BKN020 OVC049 07/04 A2970 RMK AO2 RAE33B56 SLP089 P0000 T00670044

EXPIRED METARs :
  • 021856Z AUTO 03014KT 10SM -RA OVC016 06/05 A2971 RMK AO2 SLP088 P0001 T00610050
  • 021756Z AUTO 04014KT 7SM RA BKN018 BKN024 OVC028 06/04 A2971 RMK AO2 RAB18 SLP088 P0004 60007 T00610044 10061 20022 53001

TAF KPQI
Valid from the 02 at 18:00 until the 03 at 18:00 UTC


021732Z 0218/0318 05014G24KT 3SM -RA OVC015 WS020/08050KT
FM030000 04014G22KT P6SM VCSH OVC015 WS020/08055KT
FM030400 04014G22KT P6SM OVC015 WS020/08050KT
FM031500 04012G22KT P6SM BKN025



MET'MAP, your aeronautical weather chart ! - Copyright ORBIFLY December 2007 - Disclaimer

ORBIFLY MET'MAP TEAM :

Programming & Development : Alexandra Zaïnal
Concept & original design : Baudouin d'Aumeries
Assistance for programming : Marc-Olivier Méhu
Technical & hardware support : Manuel Goepfert

Contact : metmap@orbifly.com




SOURCES & CREDITS :

   NOAA